sensor_id;sensor_type;location;lat;lon;timestamp;P1;durP1;ratioP1;P2;durP2;ratioP2
29876;SDS011;16750;49.002;9.204;2022-07-17T00:01:27;3.58;;;2.42;;
29876;SDS011;16750;49.002;9.204;2022-07-17T00:03:53;6.15;;;2.67;;
29876;SDS011;16750;49.002;9.204;2022-07-17T00:06:18;5.50;;;2.65;;
29876;SDS011;16750;49.002;9.204;2022-07-17T00:08:44;4.50;;;2.70;;
29876;SDS011;16750;49.002;9.204;2022-07-17T00:11:09;5.85;;;2.78;;
29876;SDS011;16750;49.002;9.204;2022-07-17T00:13:35;6.13;;;2.85;;
29876;SDS011;16750;49.002;9.204;2022-07-17T00:16:00;5.25;;;2.60;;
29876;SDS011;16750;49.002;9.204;2022-07-17T00:18:25;4.38;;;2.53;;
29876;SDS011;16750;49.002;9.204;2022-07-17T00:20:51;6.47;;;2.65;;
29876;SDS011;16750;49.002;9.204;2022-07-17T00:23:16;5.13;;;2.65;;
29876;SDS011;16750;49.002;9.204;2022-07-17T00:25:42;5.00;;;2.60;;
29876;SDS011;16750;49.002;9.204;2022-07-17T00:28:08;7.53;;;2.92;;
29876;SDS011;16750;49.002;9.204;2022-07-17T00:30:33;4.90;;;2.88;;
29876;SDS011;16750;49.002;9.204;2022-07-17T00:32:59;7.70;;;3.10;;
29876;SDS011;16750;49.002;9.204;2022-07-17T00:35:24;5.53;;;3.40;;
29876;SDS011;16750;49.002;9.204;2022-07-17T00:37:50;6.50;;;3.30;;
29876;SDS011;16750;49.002;9.204;2022-07-17T00:40:18;5.00;;;2.67;;
29876;SDS011;16750;49.002;9.204;2022-07-17T00:42:45;8.82;;;3.80;;
29876;SDS011;16750;49.002;9.204;2022-07-17T00:45:11;6.70;;;3.70;;
29876;SDS011;16750;49.002;9.204;2022-07-17T00:47:48;6.30;;;3.17;;
29876;SDS011;16750;49.002;9.204;2022-07-17T00:50:17;10.07;;;3.42;;
29876;SDS011;16750;49.002;9.204;2022-07-17T00:52:43;7.60;;;3.30;;
29876;SDS011;16750;49.002;9.204;2022-07-17T00:55:10;5.20;;;3.25;;
29876;SDS011;16750;49.002;9.204;2022-07-17T00:57:37;9.23;;;3.40;;
29876;SDS011;16750;49.002;9.204;2022-07-17T01:00:05;7.10;;;3.75;;
29876;SDS011;16750;49.002;9.204;2022-07-17T01:02:35;5.57;;;3.45;;
29876;SDS011;16750;49.002;9.204;2022-07-17T01:05:00;7.55;;;3.40;;
29876;SDS011;16750;49.002;9.204;2022-07-17T01:07:26;5.53;;;4.20;;
29876;SDS011;16750;49.002;9.204;2022-07-17T01:09:52;8.13;;;3.72;;
29876;SDS011;16750;49.002;9.204;2022-07-17T01:12:17;5.82;;;3.63;;
29876;SDS011;16750;49.002;9.204;2022-07-17T01:14:43;5.70;;;3.70;;
29876;SDS011;16750;49.002;9.204;2022-07-17T01:17:09;8.32;;;3.75;;
29876;SDS011;16750;49.002;9.204;2022-07-17T01:19:35;9.43;;;4.07;;
29876;SDS011;16750;49.002;9.204;2022-07-17T01:22:01;6.53;;;4.07;;
29876;SDS011;16750;49.002;9.204;2022-07-17T01:24:26;7.22;;;3.72;;
29876;SDS011;16750;49.002;9.204;2022-07-17T01:26:51;6.88;;;3.50;;
29876;SDS011;16750;49.002;9.204;2022-07-17T01:29:17;6.80;;;3.47;;
29876;SDS011;16750;49.002;9.204;2022-07-17T01:31:42;7.57;;;3.70;;
29876;SDS011;16750;49.002;9.204;2022-07-17T01:34:10;8.50;;;4.10;;
29876;SDS011;16750;49.002;9.204;2022-07-17T01:36:37;5.60;;;3.55;;
29876;SDS011;16750;49.002;9.204;2022-07-17T01:39:03;7.72;;;4.18;;
29876;SDS011;16750;49.002;9.204;2022-07-17T01:41:29;7.03;;;3.90;;
29876;SDS011;16750;49.002;9.204;2022-07-17T01:43:55;6.43;;;3.92;;
29876;SDS011;16750;49.002;9.204;2022-07-17T01:46:21;5.57;;;3.70;;
29876;SDS011;16750;49.002;9.204;2022-07-17T01:48:47;5.97;;;3.80;;
29876;SDS011;16750;49.002;9.204;2022-07-17T01:51:12;7.72;;;4.30;;
29876;SDS011;16750;49.002;9.204;2022-07-17T01:53:38;5.40;;;4.35;;
29876;SDS011;16750;49.002;9.204;2022-07-17T01:56:03;7.00;;;4.50;;
29876;SDS011;16750;49.002;9.204;2022-07-17T01:58:29;8.02;;;4.32;;
29876;SDS011;16750;49.002;9.204;2022-07-17T02:00:54;6.15;;;4.07;;
29876;SDS011;16750;49.002;9.204;2022-07-17T02:03:20;8.85;;;4.43;;
29876;SDS011;16750;49.002;9.204;2022-07-17T02:05:46;7.38;;;4.38;;
29876;SDS011;16750;49.002;9.204;2022-07-17T02:08:12;6.13;;;4.22;;
29876;SDS011;16750;49.002;9.204;2022-07-17T02:10:37;7.05;;;4.00;;
29876;SDS011;16750;49.002;9.204;2022-07-17T02:13:03;6.63;;;4.20;;
29876;SDS011;16750;49.002;9.204;2022-07-17T02:15:29;5.95;;;4.10;;
29876;SDS011;16750;49.002;9.204;2022-07-17T02:17:54;6.60;;;4.40;;
29876;SDS011;16750;49.002;9.204;2022-07-17T02:20:20;5.97;;;4.15;;
29876;SDS011;16750;49.002;9.204;2022-07-17T02:22:45;6.28;;;4.13;;
29876;SDS011;16750;49.002;9.204;2022-07-17T02:25:11;8.50;;;4.78;;
29876;SDS011;16750;49.002;9.204;2022-07-17T02:27:37;5.15;;;3.80;;
29876;SDS011;16750;49.002;9.204;2022-07-17T02:30:24;6.05;;;4.05;;
29876;SDS011;16750;49.002;9.204;2022-07-17T02:32:49;5.88;;;3.70;;
29876;SDS011;16750;49.002;9.204;2022-07-17T02:35:14;6.38;;;3.88;;
29876;SDS011;16750;49.002;9.204;2022-07-17T02:37:41;5.60;;;4.03;;
29876;SDS011;16750;49.002;9.204;2022-07-17T02:40:11;10.07;;;3.58;;
29876;SDS011;16750;49.002;9.204;2022-07-17T02:42:37;6.97;;;3.53;;
29876;SDS011;16750;49.002;9.204;2022-07-17T02:45:03;5.57;;;4.15;;
29876;SDS011;16750;49.002;9.204;2022-07-17T02:47:32;5.97;;;4.20;;
29876;SDS011;16750;49.002;9.204;2022-07-17T02:49:58;5.50;;;4.18;;
29876;SDS011;16750;49.002;9.204;2022-07-17T02:52:26;5.80;;;3.95;;
29876;SDS011;16750;49.002;9.204;2022-07-17T02:54:52;7.43;;;4.35;;
29876;SDS011;16750;49.002;9.204;2022-07-17T02:57:18;5.57;;;4.00;;
29876;SDS011;16750;49.002;9.204;2022-07-17T02:59:44;6.18;;;4.13;;
29876;SDS011;16750;49.002;9.204;2022-07-17T03:02:11;7.97;;;5.00;;
29876;SDS011;16750;49.002;9.204;2022-07-17T03:04:36;6.38;;;4.60;;
29876;SDS011;16750;49.002;9.204;2022-07-17T03:07:02;7.15;;;4.45;;
29876;SDS011;16750;49.002;9.204;2022-07-17T03:09:28;9.10;;;4.80;;
29876;SDS011;16750;49.002;9.204;2022-07-17T03:11:53;6.72;;;4.65;;
29876;SDS011;16750;49.002;9.204;2022-07-17T03:14:19;7.20;;;4.90;;
29876;SDS011;16750;49.002;9.204;2022-07-17T03:16:44;8.20;;;5.28;;
29876;SDS011;16750;49.002;9.204;2022-07-17T03:19:10;8.10;;;5.05;;
29876;SDS011;16750;49.002;9.204;2022-07-17T03:21:35;6.13;;;4.57;;
29876;SDS011;16750;49.002;9.204;2022-07-17T03:24:00;7.18;;;5.05;;
29876;SDS011;16750;49.002;9.204;2022-07-17T03:26:26;6.68;;;5.10;;
29876;SDS011;16750;49.002;9.204;2022-07-17T03:28:52;6.60;;;5.35;;
29876;SDS011;16750;49.002;9.204;2022-07-17T03:31:17;6.35;;;4.88;;
29876;SDS011;16750;49.002;9.204;2022-07-17T03:33:42;8.98;;;4.95;;
29876;SDS011;16750;49.002;9.204;2022-07-17T03:36:08;9.95;;;4.88;;
29876;SDS011;16750;49.002;9.204;2022-07-17T03:38:33;7.75;;;5.00;;
29876;SDS011;16750;49.002;9.204;2022-07-17T03:40:59;7.45;;;5.47;;
29876;SDS011;16750;49.002;9.204;2022-07-17T03:43:24;5.90;;;5.18;;
29876;SDS011;16750;49.002;9.204;2022-07-17T03:45:50;7.85;;;5.07;;
29876;SDS011;16750;49.002;9.204;2022-07-17T03:48:15;6.53;;;4.95;;
29876;SDS011;16750;49.002;9.204;2022-07-17T03:50:41;7.45;;;4.90;;
29876;SDS011;16750;49.002;9.204;2022-07-17T03:53:07;9.45;;;5.00;;
29876;SDS011;16750;49.002;9.204;2022-07-17T03:55:32;6.85;;;5.25;;
29876;SDS011;16750;49.002;9.204;2022-07-17T03:57:58;8.70;;;5.45;;
29876;SDS011;16750;49.002;9.204;2022-07-17T04:00:23;7.72;;;5.53;;
29876;SDS011;16750;49.002;9.204;2022-07-17T04:02:49;6.70;;;5.03;;
29876;SDS011;16750;49.002;9.204;2022-07-17T04:05:14;9.40;;;5.63;;
29876;SDS011;16750;49.002;9.204;2022-07-17T04:07:40;7.88;;;5.28;;
29876;SDS011;16750;49.002;9.204;2022-07-17T04:10:07;8.90;;;5.10;;
29876;SDS011;16750;49.002;9.204;2022-07-17T04:12:34;7.07;;;5.25;;
29876;SDS011;16750;49.002;9.204;2022-07-17T04:15:00;7.38;;;5.03;;
29876;SDS011;16750;49.002;9.204;2022-07-17T04:17:26;7.57;;;5.03;;
29876;SDS011;16750;49.002;9.204;2022-07-17T04:19:51;8.38;;;5.50;;
29876;SDS011;16750;49.002;9.204;2022-07-17T04:22:17;9.25;;;5.38;;
29876;SDS011;16750;49.002;9.204;2022-07-17T04:24:43;7.10;;;5.72;;
29876;SDS011;16750;49.002;9.204;2022-07-17T04:27:09;7.43;;;5.90;;
29876;SDS011;16750;49.002;9.204;2022-07-17T04:29:35;8.88;;;5.50;;
29876;SDS011;16750;49.002;9.204;2022-07-17T04:32:01;6.10;;;5.50;;
29876;SDS011;16750;49.002;9.204;2022-07-17T04:34:27;7.20;;;5.30;;
29876;SDS011;16750;49.002;9.204;2022-07-17T04:36:53;9.00;;;5.45;;
29876;SDS011;16750;49.002;9.204;2022-07-17T04:39:18;6.95;;;5.30;;
29876;SDS011;16750;49.002;9.204;2022-07-17T04:41:44;5.82;;;4.90;;
29876;SDS011;16750;49.002;9.204;2022-07-17T04:44:09;7.95;;;5.30;;
29876;SDS011;16750;49.002;9.204;2022-07-17T04:46:35;8.45;;;5.57;;
29876;SDS011;16750;49.002;9.204;2022-07-17T04:49:00;6.45;;;5.68;;
29876;SDS011;16750;49.002;9.204;2022-07-17T04:51:25;8.32;;;4.68;;
29876;SDS011;16750;49.002;9.204;2022-07-17T04:53:51;6.35;;;4.60;;
29876;SDS011;16750;49.002;9.204;2022-07-17T04:56:16;7.22;;;4.35;;
29876;SDS011;16750;49.002;9.204;2022-07-17T04:58:42;6.28;;;4.50;;
29876;SDS011;16750;49.002;9.204;2022-07-17T05:01:07;9.20;;;4.18;;
29876;SDS011;16750;49.002;9.204;2022-07-17T05:03:32;9.27;;;4.45;;
29876;SDS011;16750;49.002;9.204;2022-07-17T05:05:58;6.38;;;3.90;;
29876;SDS011;16750;49.002;9.204;2022-07-17T05:08:23;8.25;;;4.00;;
29876;SDS011;16750;49.002;9.204;2022-07-17T05:10:48;6.30;;;4.00;;
29876;SDS011;16750;49.002;9.204;2022-07-17T05:13:14;7.93;;;4.20;;
29876;SDS011;16750;49.002;9.204;2022-07-17T05:15:39;6.47;;;3.83;;
29876;SDS011;16750;49.002;9.204;2022-07-17T05:18:05;6.55;;;4.20;;
29876;SDS011;16750;49.002;9.204;2022-07-17T05:20:31;7.53;;;4.28;;
29876;SDS011;16750;49.002;9.204;2022-07-17T05:22:56;6.22;;;4.55;;
29876;SDS011;16750;49.002;9.204;2022-07-17T05:25:22;6.93;;;4.40;;
29876;SDS011;16750;49.002;9.204;2022-07-17T05:27:47;6.90;;;4.45;;
29876;SDS011;16750;49.002;9.204;2022-07-17T05:30:13;8.45;;;4.55;;
29876;SDS011;16750;49.002;9.204;2022-07-17T05:32:39;6.00;;;4.35;;
29876;SDS011;16750;49.002;9.204;2022-07-17T05:35:04;4.95;;;4.07;;
29876;SDS011;16750;49.002;9.204;2022-07-17T05:37:30;6.72;;;4.43;;
29876;SDS011;16750;49.002;9.204;2022-07-17T05:39:55;7.40;;;4.60;;
29876;SDS011;16750;49.002;9.204;2022-07-17T05:42:21;7.90;;;4.70;;
29876;SDS011;16750;49.002;9.204;2022-07-17T05:44:47;6.18;;;4.07;;
29876;SDS011;16750;49.002;9.204;2022-07-17T05:47:12;6.88;;;4.25;;
29876;SDS011;16750;49.002;9.204;2022-07-17T05:49:38;6.22;;;4.20;;
29876;SDS011;16750;49.002;9.204;2022-07-17T05:52:04;7.07;;;4.57;;
29876;SDS011;16750;49.002;9.204;2022-07-17T05:54:29;6.57;;;4.30;;
29876;SDS011;16750;49.002;9.204;2022-07-17T05:56:55;9.85;;;4.53;;
29876;SDS011;16750;49.002;9.204;2022-07-17T05:59:20;6.97;;;4.35;;
29876;SDS011;16750;49.002;9.204;2022-07-17T06:01:45;5.25;;;4.20;;
29876;SDS011;16750;49.002;9.204;2022-07-17T06:04:11;7.75;;;4.32;;
29876;SDS011;16750;49.002;9.204;2022-07-17T06:06:36;6.25;;;4.07;;
29876;SDS011;16750;49.002;9.204;2022-07-17T06:09:02;5.95;;;4.03;;
29876;SDS011;16750;49.002;9.204;2022-07-17T06:11:27;6.15;;;4.15;;
29876;SDS011;16750;49.002;9.204;2022-07-17T06:13:53;7.30;;;4.00;;
29876;SDS011;16750;49.002;9.204;2022-07-17T06:16:18;7.93;;;3.78;;
29876;SDS011;16750;49.002;9.204;2022-07-17T06:18:43;7.95;;;3.85;;
29876;SDS011;16750;49.002;9.204;2022-07-17T06:21:09;5.55;;;3.42;;
29876;SDS011;16750;49.002;9.204;2022-07-17T06:23:34;5.47;;;3.55;;
29876;SDS011;16750;49.002;9.204;2022-07-17T06:26:00;5.95;;;3.70;;
29876;SDS011;16750;49.002;9.204;2022-07-17T06:28:25;4.68;;;3.25;;
29876;SDS011;16750;49.002;9.204;2022-07-17T06:30:51;5.88;;;3.20;;
29876;SDS011;16750;49.002;9.204;2022-07-17T06:33:16;5.45;;;2.88;;
29876;SDS011;16750;49.002;9.204;2022-07-17T06:35:41;4.20;;;2.60;;
29876;SDS011;16750;49.002;9.204;2022-07-17T06:38:07;9.25;;;2.88;;
29876;SDS011;16750;49.002;9.204;2022-07-17T06:40:33;7.53;;;2.38;;
29876;SDS011;16750;49.002;9.204;2022-07-17T06:42:59;4.28;;;2.08;;
29876;SDS011;16750;49.002;9.204;2022-07-17T06:45:24;5.03;;;2.35;;
29876;SDS011;16750;49.002;9.204;2022-07-17T06:47:50;5.47;;;2.38;;
29876;SDS011;16750;49.002;9.204;2022-07-17T06:50:15;3.85;;;2.20;;
29876;SDS011;16750;49.002;9.204;2022-07-17T06:52:41;4.82;;;2.20;;
29876;SDS011;16750;49.002;9.204;2022-07-17T06:55:06;6.60;;;2.20;;
29876;SDS011;16750;49.002;9.204;2022-07-17T06:57:32;4.40;;;2.20;;
29876;SDS011;16750;49.002;9.204;2022-07-17T06:59:57;3.78;;;1.95;;
29876;SDS011;16750;49.002;9.204;2022-07-17T07:02:23;7.00;;;2.20;;
29876;SDS011;16750;49.002;9.204;2022-07-17T07:04:48;4.57;;;1.95;;
29876;SDS011;16750;49.002;9.204;2022-07-17T07:07:13;4.65;;;1.80;;
29876;SDS011;16750;49.002;9.204;2022-07-17T07:09:39;4.60;;;2.00;;
29876;SDS011;16750;49.002;9.204;2022-07-17T07:12:04;5.13;;;1.70;;
29876;SDS011;16750;49.002;9.204;2022-07-17T07:14:30;4.07;;;1.75;;
29876;SDS011;16750;49.002;9.204;2022-07-17T07:16:55;5.80;;;2.05;;
29876;SDS011;16750;49.002;9.204;2022-07-17T07:19:21;4.15;;;1.63;;
29876;SDS011;16750;49.002;9.204;2022-07-17T07:21:46;4.25;;;1.80;;
29876;SDS011;16750;49.002;9.204;2022-07-17T07:24:12;4.90;;;1.80;;
29876;SDS011;16750;49.002;9.204;2022-07-17T07:26:37;3.92;;;1.50;;
29876;SDS011;16750;49.002;9.204;2022-07-17T07:29:03;5.93;;;1.70;;
29876;SDS011;16750;49.002;9.204;2022-07-17T07:31:28;2.88;;;1.27;;
29876;SDS011;16750;49.002;9.204;2022-07-17T07:33:54;4.25;;;1.60;;
29876;SDS011;16750;49.002;9.204;2022-07-17T07:36:19;5.57;;;1.40;;
29876;SDS011;16750;49.002;9.204;2022-07-17T07:38:44;4.68;;;1.65;;
29876;SDS011;16750;49.002;9.204;2022-07-17T07:41:10;3.38;;;1.42;;
29876;SDS011;16750;49.002;9.204;2022-07-17T07:43:36;3.70;;;1.50;;
29876;SDS011;16750;49.002;9.204;2022-07-17T07:46:02;3.10;;;1.50;;
29876;SDS011;16750;49.002;9.204;2022-07-17T07:48:28;3.10;;;1.20;;
29876;SDS011;16750;49.002;9.204;2022-07-17T07:50:53;4.32;;;1.30;;
29876;SDS011;16750;49.002;9.204;2022-07-17T07:53:19;3.63;;;1.40;;
29876;SDS011;16750;49.002;9.204;2022-07-17T07:55:44;3.45;;;1.10;;
29876;SDS011;16750;49.002;9.204;2022-07-17T07:58:11;3.30;;;1.00;;
29876;SDS011;16750;49.002;9.204;2022-07-17T08:00:38;3.10;;;1.40;;
29876;SDS011;16750;49.002;9.204;2022-07-17T08:03:05;3.22;;;1.20;;
29876;SDS011;16750;49.002;9.204;2022-07-17T08:05:31;3.38;;;1.42;;
29876;SDS011;16750;49.002;9.204;2022-07-17T08:07:57;2.80;;;1.20;;
29876;SDS011;16750;49.002;9.204;2022-07-17T08:10:22;5.30;;;1.38;;
29876;SDS011;16750;49.002;9.204;2022-07-17T08:12:48;3.08;;;1.20;;
29876;SDS011;16750;49.002;9.204;2022-07-17T08:15:15;3.28;;;1.30;;
29876;SDS011;16750;49.002;9.204;2022-07-17T08:17:41;4.68;;;1.70;;
29876;SDS011;16750;49.002;9.204;2022-07-17T08:20:07;5.43;;;1.77;;
29876;SDS011;16750;49.002;9.204;2022-07-17T08:22:33;4.57;;;1.35;;
29876;SDS011;16750;49.002;9.204;2022-07-17T08:24:59;4.88;;;1.30;;
29876;SDS011;16750;49.002;9.204;2022-07-17T08:27:24;2.50;;;1.30;;
29876;SDS011;16750;49.002;9.204;2022-07-17T08:29:50;2.70;;;1.38;;
29876;SDS011;16750;49.002;9.204;2022-07-17T08:32:15;3.75;;;1.40;;
29876;SDS011;16750;49.002;9.204;2022-07-17T08:34:40;3.95;;;1.23;;
29876;SDS011;16750;49.002;9.204;2022-07-17T08:37:06;2.75;;;1.20;;
29876;SDS011;16750;49.002;9.204;2022-07-17T08:39:34;2.65;;;1.33;;
29876;SDS011;16750;49.002;9.204;2022-07-17T08:42:03;3.85;;;1.15;;
29876;SDS011;16750;49.002;9.204;2022-07-17T08:44:28;3.75;;;1.38;;
29876;SDS011;16750;49.002;9.204;2022-07-17T08:46:54;3.42;;;1.20;;
29876;SDS011;16750;49.002;9.204;2022-07-17T08:49:20;2.78;;;1.23;;
29876;SDS011;16750;49.002;9.204;2022-07-17T08:51:49;2.63;;;1.20;;
29876;SDS011;16750;49.002;9.204;2022-07-17T08:54:14;2.83;;;1.25;;
29876;SDS011;16750;49.002;9.204;2022-07-17T08:56:40;3.55;;;1.20;;
29876;SDS011;16750;49.002;9.204;2022-07-17T08:59:05;4.55;;;1.38;;
29876;SDS011;16750;49.002;9.204;2022-07-17T09:01:31;2.72;;;1.10;;
29876;SDS011;16750;49.002;9.204;2022-07-17T09:03:57;2.58;;;1.17;;
29876;SDS011;16750;49.002;9.204;2022-07-17T09:06:25;6.93;;;2.05;;
29876;SDS011;16750;49.002;9.204;2022-07-17T09:11:48;2.15;;;1.15;;
29876;SDS011;16750;49.002;9.204;2022-07-17T09:14:15;2.70;;;0.98;;
29876;SDS011;16750;49.002;9.204;2022-07-17T09:17:03;2.70;;;1.00;;
29876;SDS011;16750;49.002;9.204;2022-07-17T09:19:30;2.83;;;1.02;;
29876;SDS011;16750;49.002;9.204;2022-07-17T09:24:42;1.70;;;1.05;;
29876;SDS011;16750;49.002;9.204;2022-07-17T09:27:12;4.00;;;1.20;;
29876;SDS011;16750;49.002;9.204;2022-07-17T09:29:49;4.63;;;1.10;;
29876;SDS011;16750;49.002;9.204;2022-07-17T09:32:20;1.80;;;1.17;;
29876;SDS011;16750;49.002;9.204;2022-07-17T09:34:50;2.83;;;1.40;;
29876;SDS011;16750;49.002;9.204;2022-07-17T09:37:17;3.35;;;1.00;;
29876;SDS011;16750;49.002;9.204;2022-07-17T09:39:42;2.28;;;0.90;;
29876;SDS011;16750;49.002;9.204;2022-07-17T09:42:09;3.75;;;1.00;;
29876;SDS011;16750;49.002;9.204;2022-07-17T09:44:59;3.67;;;1.20;;
29876;SDS011;16750;49.002;9.204;2022-07-17T09:47:34;1.83;;;0.98;;
29876;SDS011;16750;49.002;9.204;2022-07-17T09:50:03;1.77;;;1.42;;
29876;SDS011;16750;49.002;9.204;2022-07-17T09:52:31;4.25;;;1.00;;
29876;SDS011;16750;49.002;9.204;2022-07-17T09:54:59;4.00;;;1.25;;
29876;SDS011;16750;49.002;9.204;2022-07-17T09:57:33;2.03;;;1.05;;
29876;SDS011;16750;49.002;9.204;2022-07-17T10:00:01;4.00;;;1.38;;
29876;SDS011;16750;49.002;9.204;2022-07-17T10:02:43;2.03;;;0.93;;
29876;SDS011;16750;49.002;9.204;2022-07-17T10:05:09;3.25;;;1.10;;
29876;SDS011;16750;49.002;9.204;2022-07-17T10:07:44;2.25;;;1.02;;
29876;SDS011;16750;49.002;9.204;2022-07-17T10:10:11;5.22;;;1.52;;
29876;SDS011;16750;49.002;9.204;2022-07-17T10:12:38;4.35;;;1.30;;
29876;SDS011;16750;49.002;9.204;2022-07-17T10:15:06;3.50;;;1.20;;
29876;SDS011;16750;49.002;9.204;2022-07-17T10:17:32;2.88;;;1.30;;
29876;SDS011;16750;49.002;9.204;2022-07-17T10:19:58;4.47;;;1.20;;
29876;SDS011;16750;49.002;9.204;2022-07-17T10:22:24;3.10;;;1.17;;
29876;SDS011;16750;49.002;9.204;2022-07-17T10:24:53;3.20;;;1.00;;
29876;SDS011;16750;49.002;9.204;2022-07-17T10:27:27;3.67;;;1.20;;
29876;SDS011;16750;49.002;9.204;2022-07-17T10:30:13;3.57;;;1.00;;
29876;SDS011;16750;49.002;9.204;2022-07-17T10:32:55;2.67;;;1.10;;
29876;SDS011;16750;49.002;9.204;2022-07-17T10:35:23;2.97;;;1.20;;
29876;SDS011;16750;49.002;9.204;2022-07-17T10:37:50;3.63;;;1.08;;
29876;SDS011;16750;49.002;9.204;2022-07-17T10:40:22;2.63;;;1.10;;
29876;SDS011;16750;49.002;9.204;2022-07-17T10:50:17;4.00;;;1.08;;
29876;SDS011;16750;49.002;9.204;2022-07-17T10:53:06;3.08;;;1.17;;
29876;SDS011;16750;49.002;9.204;2022-07-17T10:55:32;2.25;;;0.98;;
29876;SDS011;16750;49.002;9.204;2022-07-17T10:57:59;1.88;;;0.90;;
29876;SDS011;16750;49.002;9.204;2022-07-17T11:00:25;2.33;;;1.02;;
29876;SDS011;16750;49.002;9.204;2022-07-17T11:02:50;1.08;;;0.77;;
29876;SDS011;16750;49.002;9.204;2022-07-17T11:05:16;2.70;;;0.98;;
29876;SDS011;16750;49.002;9.204;2022-07-17T11:07:49;3.30;;;1.20;;
29876;SDS011;16750;49.002;9.204;2022-07-17T11:10:14;2.72;;;1.02;;
29876;SDS011;16750;49.002;9.204;2022-07-17T11:12:41;5.22;;;1.83;;
29876;SDS011;16750;49.002;9.204;2022-07-17T11:15:06;6.07;;;1.98;;
29876;SDS011;16750;49.002;9.204;2022-07-17T11:17:32;4.40;;;1.58;;
29876;SDS011;16750;49.002;9.204;2022-07-17T11:19:57;4.00;;;1.10;;
29876;SDS011;16750;49.002;9.204;2022-07-17T11:22:25;3.45;;;1.00;;
29876;SDS011;16750;49.002;9.204;2022-07-17T11:24:52;11.77;;;3.47;;
29876;SDS011;16750;49.002;9.204;2022-07-17T11:27:18;3.80;;;1.10;;
29876;SDS011;16750;49.002;9.204;2022-07-17T11:29:47;2.35;;;0.90;;
29876;SDS011;16750;49.002;9.204;2022-07-17T11:32:13;2.35;;;0.90;;
29876;SDS011;16750;49.002;9.204;2022-07-17T11:34:39;1.85;;;1.10;;
29876;SDS011;16750;49.002;9.204;2022-07-17T11:37:06;3.35;;;0.98;;
29876;SDS011;16750;49.002;9.204;2022-07-17T11:39:46;5.07;;;1.80;;
29876;SDS011;16750;49.002;9.204;2022-07-17T11:42:13;3.08;;;1.10;;
29876;SDS011;16750;49.002;9.204;2022-07-17T11:44:46;1.83;;;0.90;;
29876;SDS011;16750;49.002;9.204;2022-07-17T11:47:20;3.08;;;0.80;;
29876;SDS011;16750;49.002;9.204;2022-07-17T11:49:48;1.25;;;0.82;;
29876;SDS011;16750;49.002;9.204;2022-07-17T11:52:14;1.38;;;0.80;;
29876;SDS011;16750;49.002;9.204;2022-07-17T11:54:48;3.33;;;1.00;;
29876;SDS011;16750;49.002;9.204;2022-07-17T11:57:20;3.47;;;1.40;;
29876;SDS011;16750;49.002;9.204;2022-07-17T11:59:46;2.72;;;1.20;;
29876;SDS011;16750;49.002;9.204;2022-07-17T12:02:13;2.83;;;1.00;;
29876;SDS011;16750;49.002;9.204;2022-07-17T12:07:16;2.38;;;0.95;;
29876;SDS011;16750;49.002;9.204;2022-07-17T12:09:42;1.65;;;0.90;;
29876;SDS011;16750;49.002;9.204;2022-07-17T12:12:17;1.83;;;0.90;;
29876;SDS011;16750;49.002;9.204;2022-07-17T12:14:57;1.70;;;0.90;;
29876;SDS011;16750;49.002;9.204;2022-07-17T12:17:24;1.40;;;0.93;;
29876;SDS011;16750;49.002;9.204;2022-07-17T12:19:50;1.95;;;0.88;;
29876;SDS011;16750;49.002;9.204;2022-07-17T12:22:16;2.35;;;0.98;;
29876;SDS011;16750;49.002;9.204;2022-07-17T12:24:42;3.67;;;1.10;;
29876;SDS011;16750;49.002;9.204;2022-07-17T12:27:10;3.20;;;0.77;;
29876;SDS011;16750;49.002;9.204;2022-07-17T12:29:37;1.70;;;0.80;;
29876;SDS011;16750;49.002;9.204;2022-07-17T12:32:16;2.55;;;1.75;;
29876;SDS011;16750;49.002;9.204;2022-07-17T12:34:43;3.72;;;1.08;;
29876;SDS011;16750;49.002;9.204;2022-07-17T12:37:11;2.33;;;1.00;;
29876;SDS011;16750;49.002;9.204;2022-07-17T12:39:41;3.05;;;0.98;;
29876;SDS011;16750;49.002;9.204;2022-07-17T12:42:06;2.55;;;0.90;;
29876;SDS011;16750;49.002;9.204;2022-07-17T12:44:33;2.97;;;0.90;;
29876;SDS011;16750;49.002;9.204;2022-07-17T12:46:58;2.20;;;1.10;;
29876;SDS011;16750;49.002;9.204;2022-07-17T12:49:24;3.72;;;1.00;;
29876;SDS011;16750;49.002;9.204;2022-07-17T12:51:50;1.80;;;0.90;;
29876;SDS011;16750;49.002;9.204;2022-07-17T12:54:16;4.95;;;1.00;;
29876;SDS011;16750;49.002;9.204;2022-07-17T12:56:41;1.67;;;0.98;;
29876;SDS011;16750;49.002;9.204;2022-07-17T12:59:07;2.38;;;1.08;;
29876;SDS011;16750;49.002;9.204;2022-07-17T13:01:33;2.65;;;1.00;;
29876;SDS011;16750;49.002;9.204;2022-07-17T13:03:58;3.53;;;1.02;;
29876;SDS011;16750;49.002;9.204;2022-07-17T13:06:25;3.50;;;1.10;;
29876;SDS011;16750;49.002;9.204;2022-07-17T13:08:50;4.15;;;1.00;;
29876;SDS011;16750;49.002;9.204;2022-07-17T13:11:15;2.58;;;1.05;;
29876;SDS011;16750;49.002;9.204;2022-07-17T13:13:41;3.25;;;0.80;;
29876;SDS011;16750;49.002;9.204;2022-07-17T13:16:06;3.38;;;1.00;;
29876;SDS011;16750;49.002;9.204;2022-07-17T13:18:32;2.88;;;0.90;;
29876;SDS011;16750;49.002;9.204;2022-07-17T13:20:57;2.15;;;1.00;;
29876;SDS011;16750;49.002;9.204;2022-07-17T13:23:24;2.60;;;1.10;;
29876;SDS011;16750;49.002;9.204;2022-07-17T13:25:49;3.40;;;0.95;;
29876;SDS011;16750;49.002;9.204;2022-07-17T13:28:15;1.73;;;1.00;;
29876;SDS011;16750;49.002;9.204;2022-07-17T13:30:41;1.90;;;1.10;;
29876;SDS011;16750;49.002;9.204;2022-07-17T13:33:06;2.33;;;0.90;;
29876;SDS011;16750;49.002;9.204;2022-07-17T13:35:32;2.97;;;0.93;;
29876;SDS011;16750;49.002;9.204;2022-07-17T13:37:58;1.85;;;0.90;;
29876;SDS011;16750;49.002;9.204;2022-07-17T13:40:26;2.53;;;0.80;;
29876;SDS011;16750;49.002;9.204;2022-07-17T13:42:53;2.63;;;1.10;;
29876;SDS011;16750;49.002;9.204;2022-07-17T13:45:18;4.18;;;1.02;;
29876;SDS011;16750;49.002;9.204;2022-07-17T13:47:44;1.65;;;0.90;;
29876;SDS011;16750;49.002;9.204;2022-07-17T13:50:09;4.40;;;1.00;;
29876;SDS011;16750;49.002;9.204;2022-07-17T13:52:36;2.60;;;1.00;;
29876;SDS011;16750;49.002;9.204;2022-07-17T13:55:03;1.80;;;0.90;;
29876;SDS011;16750;49.002;9.204;2022-07-17T13:57:30;1.58;;;0.90;;
29876;SDS011;16750;49.002;9.204;2022-07-17T13:59:56;2.60;;;1.02;;
29876;SDS011;16750;49.002;9.204;2022-07-17T14:02:22;5.07;;;1.00;;
29876;SDS011;16750;49.002;9.204;2022-07-17T14:04:48;4.53;;;0.98;;
29876;SDS011;16750;49.002;9.204;2022-07-17T14:07:14;4.18;;;1.00;;
29876;SDS011;16750;49.002;9.204;2022-07-17T14:09:40;2.80;;;0.90;;
29876;SDS011;16750;49.002;9.204;2022-07-17T14:12:05;1.45;;;0.75;;
29876;SDS011;16750;49.002;9.204;2022-07-17T14:14:31;2.00;;;1.27;;
29876;SDS011;16750;49.002;9.204;2022-07-17T14:16:56;2.97;;;0.98;;
29876;SDS011;16750;49.002;9.204;2022-07-17T14:19:22;3.88;;;1.08;;
29876;SDS011;16750;49.002;9.204;2022-07-17T14:21:48;4.90;;;1.33;;
29876;SDS011;16750;49.002;9.204;2022-07-17T14:24:14;2.08;;;0.90;;
29876;SDS011;16750;49.002;9.204;2022-07-17T14:26:40;1.65;;;0.90;;
29876;SDS011;16750;49.002;9.204;2022-07-17T14:29:07;3.22;;;1.20;;
29876;SDS011;16750;49.002;9.204;2022-07-17T14:31:33;1.45;;;0.90;;
29876;SDS011;16750;49.002;9.204;2022-07-17T14:33:59;2.30;;;1.00;;
29876;SDS011;16750;49.002;9.204;2022-07-17T14:36:25;1.63;;;0.80;;
29876;SDS011;16750;49.002;9.204;2022-07-17T14:38:50;5.20;;;0.82;;
29876;SDS011;16750;49.002;9.204;2022-07-17T14:41:15;5.03;;;1.15;;
29876;SDS011;16750;49.002;9.204;2022-07-17T14:43:41;5.13;;;0.73;;
29876;SDS011;16750;49.002;9.204;2022-07-17T14:46:06;3.83;;;0.88;;
29876;SDS011;16750;49.002;9.204;2022-07-17T14:48:32;1.38;;;0.82;;
29876;SDS011;16750;49.002;9.204;2022-07-17T14:50:57;8.05;;;0.90;;
29876;SDS011;16750;49.002;9.204;2022-07-17T14:53:23;1.95;;;0.90;;
29876;SDS011;16750;49.002;9.204;2022-07-17T14:55:48;3.75;;;0.80;;
29876;SDS011;16750;49.002;9.204;2022-07-17T14:58:13;5.05;;;1.35;;
29876;SDS011;16750;49.002;9.204;2022-07-17T15:00:39;1.05;;;0.63;;